Time;durP1;ratioP1;P1;durP2;ratioP2;P2;SDS_P1;SDS_P2;PMS_P1;PMS_P2;Temp;Humidity;BMP_temperature;BMP_pressure;BME280_temperature;BME280_humidity;BME280_pressure;Samples;Min_cycle;Max_cycle;Signal;HPM_P1;HPM_P2
2021/12/13 05:01:04;;;;;;;52.90;24.70;;;6.60;99.90;;;;;;5703158;23;20521;-72
2021/12/13 05:03:34;;;;;;;46.63;24.63;;;6.60;99.90;;;;;;4979344;28;20925;-71
2021/12/13 05:06:05;;;;;;;48.33;26.37;;;6.60;99.90;;;;;;4982665;28;20523;-72
2021/12/13 05:08:33;;;;;;;57.00;25.67;;;6.60;99.90;;;;;;4985978;28;20431;-72
2021/12/13 05:11:04;;;;;;;57.60;25.20;;;6.60;99.90;;;;;;4978370;28;20496;-72
2021/12/13 05:13:32;;;;;;;51.10;24.60;;;6.60;99.90;;;;;;4978329;28;20440;-73
2021/12/13 05:16:08;;;;;;;51.57;25.47;;;6.60;99.90;;;;;;4978308;28;20808;-73
2021/12/13 05:18:40;;;;;;;40.20;23.63;;;6.60;99.90;;;;;;4978316;28;20498;-72
2021/12/13 05:21:12;;;;;;;45.53;22.70;;;6.50;99.90;;;;;;4978264;28;20479;-72
2021/12/13 05:23:47;;;;;;;48.27;24.93;;;6.60;99.90;;;;;;4977833;28;20439;-72
2021/12/13 05:26:19;;;;;;;45.83;26.10;;;6.60;99.90;;;;;;4977815;28;20913;-72
2021/12/13 05:28:50;;;;;;;39.10;23.73;;;6.60;99.90;;;;;;4977704;28;20450;-72
2021/12/13 05:31:22;;;;;;;44.63;25.40;;;6.60;99.90;;;;;;4977883;28;20579;-72
2021/12/13 05:33:52;;;;;;;48.07;25.33;;;6.60;99.90;;;;;;4977879;28;20810;-73
2021/12/13 05:36:22;;;;;;;52.07;25.10;;;6.60;99.90;;;;;;4978435;28;20443;-72
2021/12/13 05:38:52;;;;;;;42.70;23.77;;;6.60;99.90;;;;;;4979204;28;20482;-70
2021/12/13 05:41:24;;;;;;;40.90;24.90;;;6.60;99.90;;;;;;4978593;28;20487;-73
2021/12/13 05:43:53;;;;;;;45.63;24.67;;;6.60;99.90;;;;;;4978497;28;20515;-72
2021/12/13 05:46:26;;;;;;;39.37;23.47;;;6.60;99.90;;;;;;4978991;28;20563;-72
2021/12/13 05:48:56;;;;;;;45.63;24.20;;;6.70;99.90;;;;;;4980372;28;20891;-72
2021/12/13 05:51:27;;;;;;;46.00;24.53;;;6.70;99.90;;;;;;4978499;28;20475;-73
2021/12/13 05:53:58;;;;;;;32.23;17.37;;;6.70;99.90;;;;;;4978971;28;20631;-70
2021/12/13 05:56:29;;;;;;;50.63;27.03;;;6.80;99.90;;;;;;4979334;28;20439;-70
2021/12/13 05:59:11;;;;;;;38.20;23.70;;;7.10;99.90;;;;;;4978968;28;20450;-70
2021/12/13 06:01:44;;;;;;;35.80;21.83;;;7.30;99.90;;;;;;4976601;28;20486;-69
2021/12/13 06:04:18;;;;;;;38.63;22.60;;;7.50;99.90;;;;;;4979467;28;20472;-70
2021/12/13 06:06:47;;;;;;;35.80;22.23;;;7.70;99.90;;;;;;4980742;28;20494;-69
2021/12/13 06:09:41;;;;;;;43.90;21.30;;;7.80;99.90;;;;;;4978456;28;20462;-70
2021/12/13 06:12:11;;;;;;;26.47;19.27;;;7.90;99.90;;;;;;4987848;28;20471;-70
2021/12/13 06:14:39;;;;;;;22.23;17.70;;;7.90;99.90;;;;;;4985111;28;20455;-69
2021/12/13 06:17:13;;;;;;;38.57;17.20;;;8.00;99.90;;;;;;4978502;28;20918;-69
2021/12/13 06:19:48;;;;;;;21.47;16.30;;;7.90;99.90;;;;;;4977561;28;20439;-70
2021/12/13 06:22:19;;;;;;;23.37;17.53;;;7.90;99.90;;;;;;4980205;28;20482;-69
2021/12/13 06:24:53;;;;;;;23.80;18.50;;;7.80;99.90;;;;;;4982352;28;20536;-70
2021/12/13 06:27:23;;;;;;;25.63;18.00;;;7.60;99.90;;;;;;4977706;28;20450;-70
2021/12/13 06:29:54;;;;;;;25.03;17.97;;;7.50;99.90;;;;;;4977337;28;20481;-72
2021/12/13 06:32:30;;;;;;;29.10;19.70;;;7.40;99.90;;;;;;4977175;28;20470;-71
2021/12/13 06:34:59;;;;;;;33.77;21.60;;;7.30;99.90;;;;;;4978188;28;20446;-71
2021/12/13 06:37:35;;;;;;;32.90;20.50;;;7.20;99.90;;;;;;4981318;28;20454;-71
2021/12/13 06:40:15;;;;;;;32.37;20.17;;;7.20;99.90;;;;;;4983959;28;20473;-72
2021/12/13 06:42:42;;;;;;;36.03;21.67;;;7.10;99.90;;;;;;4981614;28;20449;-72
2021/12/13 06:45:22;;;;;;;39.63;21.00;;;7.00;99.90;;;;;;4981291;28;20466;-70
2021/12/13 06:47:53;;;;;;;36.30;21.00;;;7.00;99.90;;;;;;4979047;28;20937;-72
2021/12/13 06:50:23;;;;;;;39.50;21.77;;;7.00;99.90;;;;;;4978164;28;20445;-72
2021/12/13 06:52:51;;;;;;;38.50;21.47;;;7.10;99.90;;;;;;4977431;28;20450;-71
2021/12/13 06:55:20;;;;;;;36.80;22.17;;;7.00;99.90;;;;;;4976984;28;20455;-72
2021/12/13 06:57:49;;;;;;;34.93;20.80;;;7.00;99.90;;;;;;4976844;28;20866;-71
2021/12/13 07:00:25;;;;;;;30.37;20.23;;;7.00;99.90;;;;;;4976227;28;20478;-71
2021/12/13 07:02:56;;;;;;;28.90;20.33;;;7.00;99.90;;;;;;4977054;28;20439;-72
2021/12/13 07:05:25;;;;;;;36.73;19.93;;;7.10;99.90;;;;;;4976124;28;20459;-72
2021/12/13 07:07:56;;;;;;;31.43;20.20;;;7.10;99.90;;;;;;4975985;28;20816;-71
2021/12/13 07:10:25;;;;;;;33.83;19.50;;;7.10;99.90;;;;;;4976244;28;20454;-67
2021/12/13 07:12:57;;;;;;;23.33;16.30;;;7.10;99.90;;;;;;4977903;28;20450;-67
2021/12/13 07:15:33;;;;;;;30.67;18.57;;;7.30;99.90;;;;;;4979382;28;20472;-67
2021/12/13 07:18:12;;;;;;;24.90;17.80;;;7.60;99.90;;;;;;4978870;28;20450;-67
2021/12/13 07:20:42;;;;;;;24.27;17.30;;;7.80;99.90;;;;;;4981816;28;20487;-67
2021/12/13 07:23:10;;;;;;;23.67;14.83;;;7.80;99.90;;;;;;4978759;28;20443;-67
2021/12/13 07:25:40;;;;;;;22.27;15.97;;;7.70;99.90;;;;;;4978824;28;20462;-66
2021/12/13 07:28:08;;;;;;;21.73;17.57;;;7.70;99.90;;;;;;4979394;28;20440;-66
2021/12/13 07:30:36;;;;;;;22.67;16.53;;;7.80;99.90;;;;;;4978867;28;20471;-67
2021/12/13 07:33:07;;;;;;;21.83;15.33;;;7.90;99.90;;;;;;4978693;28;20444;-67
2021/12/13 07:35:36;;;;;;;18.83;15.13;;;8.00;99.90;;;;;;4978235;28;20450;-67
2021/12/13 07:38:06;;;;;;;22.00;15.83;;;8.00;99.90;;;;;;4978782;28;20451;-70
2021/12/13 07:40:42;;;;;;;17.43;13.70;;;8.10;99.90;;;;;;4978613;28;20475;-71
2021/12/13 07:43:28;;;;;;;19.37;14.87;;;8.10;99.90;;;;;;4978654;28;20446;-71
2021/12/13 07:46:02;;;;;;;21.50;16.60;;;8.10;99.90;;;;;;4978156;28;20926;-71
2021/12/13 07:48:34;;;;;;;26.30;18.13;;;8.00;99.90;;;;;;4978831;28;20439;-71
2021/12/13 07:51:07;;;;;;;26.50;17.90;;;7.90;99.90;;;;;;4979235;28;20471;-71
2021/12/13 07:53:44;;;;;;;26.10;17.77;;;7.80;99.90;;;;;;4979571;28;20435;-72
2021/12/13 07:56:13;;;;;;;22.23;17.50;;;7.80;99.90;;;;;;4978397;28;20902;-72
2021/12/13 07:58:44;;;;;;;22.37;16.97;;;7.80;99.90;;;;;;4978408;28;20455;-72
2021/12/13 08:01:16;;;;;;;24.67;17.50;;;7.80;99.90;;;;;;4978169;28;20491;-72
2021/12/13 08:03:47;;;;;;;22.90;17.70;;;7.70;99.90;;;;;;4978421;28;20439;-72
2021/12/13 08:06:15;;;;;;;24.50;18.00;;;7.60;99.90;;;;;;4979370;28;20451;-71
2021/12/13 08:08:48;;;;;;;29.53;20.73;;;7.60;99.90;;;;;;4986963;28;20455;-73
2021/12/13 08:11:17;;;;;;;25.50;18.27;;;7.60;99.90;;;;;;4980191;28;20478;-71
2021/12/13 08:13:56;;;;;;;27.17;19.10;;;7.60;99.90;;;;;;4986582;28;20455;-73
2021/12/13 08:16:30;;;;;;;24.57;17.97;;;7.60;99.90;;;;;;4988516;28;20442;-72
2021/12/13 08:19:07;;;;;;;23.17;17.30;;;7.70;99.90;;;;;;4978694;28;20439;-71
2021/12/13 08:21:41;;;;;;;24.00;18.60;;;7.70;99.90;;;;;;4977363;28;20878;-72
2021/12/13 08:24:16;;;;;;;25.47;19.00;;;7.70;99.90;;;;;;4977087;28;20444;-72
2021/12/13 08:26:44;;;;;;;27.83;19.03;;;7.60;99.90;;;;;;4977587;28;20786;-72
2021/12/13 08:29:18;;;;;;;29.10;19.33;;;7.70;99.90;;;;;;4978913;28;20465;-72
2021/12/13 08:31:46;;;;;;;22.40;18.13;;;7.70;99.90;;;;;;4977666;28;20470;-72
2021/12/13 08:34:23;;;;;;;22.83;17.97;;;7.80;99.90;;;;;;4977486;28;20455;-72
2021/12/13 08:36:51;;;;;;;31.20;17.93;;;7.80;99.90;;;;;;4977791;28;20443;-72
2021/12/13 08:39:20;;;;;;;25.30;18.07;;;7.70;99.90;;;;;;4978431;28;20470;-71
2021/12/13 08:41:50;;;;;;;22.00;18.37;;;7.70;99.90;;;;;;4977624;28;20479;-72
2021/12/13 08:44:21;;;;;;;18.87;16.87;;;7.70;99.90;;;;;;4977575;28;20443;-72
2021/12/13 08:46:55;;;;;;;24.70;18.50;;;7.80;99.90;;;;;;4977780;28;20439;-72
2021/12/13 08:49:30;;;;;;;21.60;17.50;;;7.80;99.90;;;;;;4977139;28;20506;-73
2021/12/13 08:52:04;;;;;;;24.87;18.07;;;7.80;99.90;;;;;;4977423;28;20479;-73
2021/12/13 08:54:42;;;;;;;20.07;17.03;;;7.90;99.90;;;;;;4977202;28;20918;-73
2021/12/13 08:57:12;;;;;;;23.27;19.30;;;8.00;99.90;;;;;;4979144;28;20447;-72
2021/12/13 08:59:50;;;;;;;22.77;17.80;;;8.10;99.90;;;;;;4996114;28;20444;-73
2021/12/13 09:02:17;;;;;;;22.30;16.60;;;8.10;99.90;;;;;;4995724;28;20483;-72
2021/12/13 09:04:57;;;;;;;18.87;16.83;;;8.20;99.90;;;;;;4993788;28;20506;-73
2021/12/13 09:07:25;;;;;;;21.90;17.17;;;8.10;99.90;;;;;;4988687;28;20447;-73
2021/12/13 09:09:54;;;;;;;20.80;16.67;;;8.10;99.90;;;;;;4977714;28;20459;-72
2021/12/13 09:12:31;;;;;;;22.67;17.90;;;8.20;99.90;;;;;;4976960;28;20511;-73
2021/12/13 09:14:59;;;;;;;21.70;18.03;;;8.20;99.90;;;;;;4976951;28;20443;-72
2021/12/13 09:17:31;;;;;;;25.07;18.27;;;8.20;99.90;;;;;;4976753;28;20455;-73
2021/12/13 09:20:06;;;;;;;22.33;19.20;;;8.30;99.90;;;;;;4977018;28;20436;-72
2021/12/13 09:22:37;;;;;;;24.13;18.50;;;8.20;99.90;;;;;;4976533;28;20478;-72
2021/12/13 09:25:11;;;;;;;24.17;19.53;;;8.20;99.90;;;;;;4997326;28;20487;-72
2021/12/13 09:27:50;;;;;;;24.97;19.63;;;8.20;99.90;;;;;;4991798;28;20439;-72
2021/12/13 09:30:29;;;;;;;27.17;20.03;;;8.10;99.90;;;;;;4985231;28;20439;-72
2021/12/13 09:33:00;;;;;;;24.10;17.70;;;8.10;99.90;;;;;;4987342;28;20439;-72
2021/12/13 09:35:36;;;;;;;23.73;18.10;;;8.20;99.90;;;;;;4980860;28;20450;-72
2021/12/13 09:38:19;;;;;;;25.60;19.33;;;8.20;99.90;;;;;;4978802;28;20450;-73
2021/12/13 09:40:53;;;;;;;27.10;20.30;;;8.10;99.90;;;;;;4985353;28;20474;-73
2021/12/13 09:43:22;;;;;;;29.17;20.17;;;8.10;99.90;;;;;;4978008;28;20551;-72
2021/12/13 09:45:54;;;;;;;28.97;21.17;;;7.90;99.90;;;;;;4976458;28;20464;-73
2021/12/13 09:48:25;;;;;;;33.00;21.80;;;8.00;99.90;;;;;;4976039;28;20447;-73
2021/12/13 09:50:58;;;;;;;35.33;22.70;;;7.90;99.90;;;;;;4976886;28;20486;-73
2021/12/13 09:53:31;;;;;;;33.77;24.00;;;7.90;99.90;;;;;;4976750;28;20454;-72
2021/12/13 09:56:00;;;;;;;36.50;22.80;;;7.90;99.90;;;;;;4976390;28;20543;-72
2021/12/13 09:58:29;;;;;;;35.00;24.70;;;7.90;99.90;;;;;;4976084;28;20459;-72
2021/12/13 10:00:59;;;;;;;38.20;23.60;;;7.90;99.90;;;;;;4976293;28;20487;-72
2021/12/13 10:03:29;;;;;;;41.40;23.07;;;8.00;99.90;;;;;;4976530;28;20478;-72
2021/12/13 10:06:00;;;;;;;32.37;22.50;;;8.00;99.90;;;;;;4976092;28;20466;-72
2021/12/13 10:08:37;;;;;;;34.83;23.30;;;8.10;99.90;;;;;;4977638;28;20462;-72
2021/12/13 10:11:08;;;;;;;38.13;24.30;;;8.20;99.90;;;;;;4977356;28;20475;-72
2021/12/13 10:13:38;;;;;;;36.27;22.67;;;8.30;99.90;;;;;;4977435;28;20446;-72
2021/12/13 10:16:08;;;;;;;38.10;24.50;;;8.40;99.90;;;;;;4985598;28;20448;-72
2021/12/13 10:18:39;;;;;;;36.47;21.63;;;8.50;99.90;;;;;;4983420;28;20520;-72
2021/12/13 10:21:12;;;;;;;30.20;23.80;;;8.60;99.90;;;;;;4976664;28;20467;-73
2021/12/13 10:23:42;;;;;;;31.33;22.10;;;8.70;99.90;;;;;;4982192;28;20514;-72
2021/12/13 10:26:11;;;;;;;31.03;21.60;;;8.60;99.90;;;;;;4976453;28;20431;-72
2021/12/13 10:28:40;;;;;;;35.20;27.07;;;8.70;99.90;;;;;;4976002;28;20945;-72
2021/12/13 10:31:12;;;;;;;32.03;22.70;;;8.70;99.90;;;;;;4977526;28;20471;-72
2021/12/13 10:33:39;;;;;;;35.23;23.90;;;8.60;99.90;;;;;;4976291;28;20443;-72
2021/12/13 10:36:09;;;;;;;35.53;22.23;;;8.60;99.90;;;;;;4978949;28;20451;-71
2021/12/13 10:38:40;;;;;;;37.37;22.77;;;8.60;99.90;;;;;;4979577;28;20443;-72
2021/12/13 10:41:10;;;;;;;36.80;21.50;;;8.50;99.90;;;;;;4977787;28;20479;-71
2021/12/13 10:43:46;;;;;;;43.80;23.00;;;8.50;99.90;;;;;;4978056;28;20467;-71
2021/12/13 10:46:16;;;;;;;38.90;23.10;;;8.50;99.90;;;;;;4976122;28;20914;-71
2021/12/13 10:48:46;;;;;;;32.43;22.63;;;8.50;99.90;;;;;;4978503;28;20961;-72
2021/12/13 10:51:20;;;;;;;27.87;20.30;;;8.60;99.90;;;;;;4979594;28;20490;-73
2021/12/13 10:53:49;;;;;;;33.30;22.00;;;8.60;99.90;;;;;;4980053;28;20438;-72
2021/12/13 10:56:20;;;;;;;29.93;21.37;;;8.60;99.90;;;;;;4979856;28;20470;-72
2021/12/13 10:58:49;;;;;;;25.63;19.67;;;8.70;99.90;;;;;;4979883;28;20439;-73
2021/12/13 11:01:19;;;;;;;33.97;19.40;;;8.80;99.90;;;;;;4979284;28;20490;-71
2021/12/13 11:03:47;;;;;;;26.50;19.00;;;9.10;99.90;;;;;;4980619;28;20447;-72
2021/12/13 11:06:16;;;;;;;25.63;18.10;;;9.20;99.90;;;;;;4979998;28;20458;-72
2021/12/13 11:08:44;;;;;;;22.57;18.90;;;9.20;99.90;;;;;;4981205;28;20450;-72
2021/12/13 11:11:17;;;;;;;21.77;17.50;;;9.30;99.90;;;;;;4991422;28;20485;-72
2021/12/13 11:13:45;;;;;;;18.87;14.67;;;9.30;99.90;;;;;;4980490;28;20902;-72
2021/12/13 11:16:17;;;;;;;24.10;17.70;;;9.30;99.90;;;;;;4979375;28;20462;-72
2021/12/13 11:18:45;;;;;;;23.90;18.07;;;9.20;99.90;;;;;;4979666;28;20444;-72
2021/12/13 11:21:17;;;;;;;23.10;17.77;;;9.20;99.90;;;;;;4978860;28;20537;-72
2021/12/13 11:23:44;;;;;;;21.77;17.37;;;9.30;99.90;;;;;;4979086;28;20471;-72
2021/12/13 11:26:14;;;;;;;19.03;15.10;;;9.40;99.90;;;;;;4979837;28;20459;-73
2021/12/13 11:28:42;;;;;;;20.83;14.93;;;9.30;99.90;;;;;;4978651;28;20942;-72
2021/12/13 11:31:13;;;;;;;20.47;16.50;;;9.40;99.90;;;;;;4979200;28;20479;-72
2021/12/13 11:34:24;;;;;;;20.17;14.47;;;9.50;99.90;;;;;;4978777;28;20445;-72
2021/12/13 11:37:23;;;;;;;19.13;13.53;;;9.60;99.90;;;;;;4979038;28;20954;-71
2021/12/13 11:40:08;;;;;;;14.53;12.13;;;9.70;99.90;;;;;;4978706;28;20946;-72
2021/12/13 11:43:11;;;;;;;15.33;12.93;;;9.70;99.90;;;;;;4979056;28;20489;-72
2021/12/13 11:46:10;;;;;;;14.10;11.77;;;9.80;99.90;;;;;;4978305;28;20443;-72
2021/12/13 11:48:56;;;;;;;14.63;11.90;;;9.90;99.90;;;;;;4980166;28;20443;-73
2021/12/13 11:51:50;;;;;;;13.00;11.70;;;10.00;99.90;;;;;;4980704;28;20482;-72
2021/12/13 11:54:49;;;;;;;11.97;10.77;;;10.00;99.90;;;;;;4979509;28;20450;-72
2021/12/13 11:57:55;;;;;;;12.77;10.30;;;10.10;99.90;;;;;;4979168;28;20804;-72
2021/12/13 12:01:01;;;;;;;10.70;9.63;;;10.10;99.90;;;;;;4977237;28;20780;-72
2021/12/13 12:04:05;;;;;;;14.80;11.10;;;10.10;99.90;;;;;;4978537;28;20463;-73
2021/12/13 12:07:04;;;;;;;13.70;12.10;;;10.00;99.90;;;;;;4978418;28;20446;-72
2021/12/13 12:09:59;;;;;;;17.93;13.60;;;10.00;99.90;;;;;;4978095;28;20439;-72
2021/12/13 12:12:48;;;;;;;12.80;11.50;;;9.90;99.90;;;;;;4977852;28;20475;-73
2021/12/13 12:15:21;;;;;;;14.67;12.60;;;9.90;99.90;;;;;;4979110;28;20503;-72
2021/12/13 12:17:50;;;;;;;13.93;12.57;;;9.90;99.90;;;;;;4978440;28;20447;-72
2021/12/13 12:20:21;;;;;;;16.70;14.90;;;9.90;99.90;;;;;;4977908;28;20514;-72
2021/12/13 12:22:51;;;;;;;19.20;17.07;;;9.80;99.90;;;;;;4977904;28;20470;-72
2021/12/13 12:25:18;;;;;;;18.03;16.03;;;9.80;99.90;;;;;;4978127;28;20466;-73
2021/12/13 12:27:45;;;;;;;17.13;15.43;;;10.00;99.90;;;;;;4977699;28;20460;-74
2021/12/13 12:30:15;;;;;;;15.73;14.13;;;10.10;99.90;;;;;;4977652;28;20462;-72
2021/12/13 12:32:45;;;;;;;16.17;14.53;;;10.10;99.90;;;;;;4978090;28;20478;-73
2021/12/13 12:35:16;;;;;;;19.23;14.70;;;10.00;99.90;;;;;;4977720;28;20443;-72
2021/12/13 12:38:25;;;;;;;14.10;12.60;;;10.10;99.90;;;;;;4978396;28;20825;-72
2021/12/13 12:41:40;;;;;;;16.40;14.43;;;10.10;99.90;;;;;;4971681;28;20498;-72
2021/12/13 12:44:08;;;;;;;16.70;15.00;;;10.10;99.90;;;;;;4916015;29;20502;-73
2021/12/13 12:46:41;;;;;;;14.83;13.33;;;10.10;99.90;;;;;;4917633;29;20457;-73
2021/12/13 12:49:14;;;;;;;15.87;14.17;;;10.10;99.90;;;;;;4953483;28;20461;-72
2021/12/13 12:51:43;;;;;;;15.10;13.40;;;10.00;99.90;;;;;;4977305;28;20479;-73
2021/12/13 12:54:12;;;;;;;14.83;13.33;;;10.00;99.90;;;;;;4977108;28;20462;-72
2021/12/13 12:56:42;;;;;;;14.10;12.60;;;9.90;99.90;;;;;;4977151;28;20969;-73
2021/12/13 12:59:15;;;;;;;13.77;12.37;;;10.00;99.90;;;;;;4977301;28;20443;-72
2021/12/13 13:01:44;;;;;;;11.80;10.70;;;10.10;99.90;;;;;;4976802;28;20489;-72
2021/12/13 13:04:16;;;;;;;12.27;11.07;;;10.10;99.90;;;;;;4978495;28;20488;-72
2021/12/13 13:06:58;;;;;;;10.57;9.67;;;10.10;99.90;;;;;;4977328;28;20443;-72
2021/12/13 13:09:42;;;;;;;10.00;9.10;;;10.20;99.90;;;;;;4977500;28;20435;-73
2021/12/13 13:12:11;;;;;;;11.10;9.83;;;10.30;99.90;;;;;;4978454;28;20475;-72
2021/12/13 13:14:46;;;;;;;10.30;9.30;;;10.30;99.90;;;;;;4986878;28;20490;-72
2021/12/13 13:17:13;;;;;;;10.33;9.43;;;10.40;99.90;;;;;;4986345;28;20443;-72
2021/12/13 13:19:42;;;;;;;9.10;8.30;;;10.30;99.90;;;;;;4980797;28;20486;-72
2021/12/13 13:22:15;;;;;;;9.37;8.47;;;10.30;99.90;;;;;;4978574;28;20490;-72
2021/12/13 13:24:43;;;;;;;9.50;8.70;;;10.30;99.90;;;;;;4978285;28;20470;-72
2021/12/13 13:27:12;;;;;;;10.57;9.67;;;10.20;99.90;;;;;;4978362;28;20816;-72
2021/12/13 13:29:40;;;;;;;10.20;9.30;;;10.20;99.90;;;;;;4977300;28;20966;-72
2021/12/13 13:32:10;;;;;;;11.93;10.83;;;10.20;99.90;;;;;;4977790;28;20812;-72
2021/12/13 13:34:40;;;;;;;12.70;11.50;;;10.10;99.90;;;;;;4979479;28;20447;-72
2021/12/13 13:37:11;;;;;;;9.40;8.63;;;10.00;99.90;;;;;;4978586;28;20447;-72
2021/12/13 13:39:43;;;;;;;10.50;9.57;;;10.00;99.90;;;;;;4981404;28;20498;-72
2021/12/13 13:42:12;;;;;;;11.07;10.07;;;9.90;99.90;;;;;;4978293;28;20482;-72
2021/12/13 13:44:44;;;;;;;11.50;10.40;;;9.90;99.90;;;;;;4978523;28;20966;-72
2021/12/13 13:47:14;;;;;;;11.53;10.50;;;9.80;99.90;;;;;;4978163;28;20455;-72
2021/12/13 13:49:42;;;;;;;10.90;9.63;;;9.80;99.90;;;;;;4977522;28;20466;-72
2021/12/13 13:52:18;;;;;;;10.17;9.20;;;9.90;99.90;;;;;;4978246;28;20487;-73
2021/12/13 13:54:47;;;;;;;9.73;8.57;;;9.90;99.90;;;;;;4977410;28;20447;-72
2021/12/13 13:57:19;;;;;;;11.73;9.20;;;9.90;99.90;;;;;;4977265;28;20463;-72
2021/12/13 13:59:47;;;;;;;10.27;9.20;;;9.80;99.90;;;;;;4978593;28;20469;-73
2021/12/13 14:02:20;;;;;;;9.97;9.07;;;9.80;99.90;;;;;;4977851;28;20561;-73
2021/12/13 14:04:50;;;;;;;9.10;8.30;;;9.90;99.90;;;;;;4978647;28;20502;-72
2021/12/13 14:07:21;;;;;;;10.17;9.27;;;9.90;99.90;;;;;;4979761;28;20451;-72
2021/12/13 14:09:51;;;;;;;10.20;9.30;;;9.90;99.90;;;;;;4978883;28;20435;-73
2021/12/13 14:12:26;;;;;;;10.23;9.10;;;9.90;99.90;;;;;;4981868;28;20530;-72
2021/12/13 14:14:58;;;;;;;11.43;10.33;;;10.00;99.90;;;;;;4987740;28;20439;-73
2021/12/13 14:17:35;;;;;;;11.00;9.90;;;9.90;99.90;;;;;;4976639;28;20447;-73
2021/12/13 14:20:15;;;;;;;12.90;10.80;;;9.90;99.90;;;;;;4976257;28;20853;-73
2021/12/13 14:22:43;;;;;;;10.67;9.67;;;9.90;99.90;;;;;;4977445;28;20471;-73
2021/12/13 14:25:11;;;;;;;9.33;8.37;;;10.00;99.90;;;;;;4980731;28;20459;-73
2021/12/13 14:27:38;;;;;;;11.27;10.20;;;9.90;99.90;;;;;;4980280;28;20459;-73
2021/12/13 14:30:15;;;;;;;10.13;9.30;;;9.90;99.90;;;;;;4979845;28;20463;-73
2021/12/13 14:32:42;;;;;;;9.87;8.60;;;9.80;99.90;;;;;;4982268;28;20439;-73
2021/12/13 14:35:13;;;;;;;9.80;8.80;;;9.80;99.90;;;;;;4980803;28;20463;-74
2021/12/13 14:37:40;;;;;;;11.27;10.20;;;9.80;99.90;;;;;;4980188;28;20797;-74
2021/12/13 14:40:14;;;;;;;9.33;8.53;;;9.80;99.90;;;;;;4980319;28;20458;-74
2021/12/13 14:42:41;;;;;;;9.77;8.70;;;9.80;99.90;;;;;;4979777;28;20451;-74
2021/12/13 14:45:12;;;;;;;9.53;8.73;;;9.80;99.90;;;;;;4979666;28;20460;-74
2021/12/13 14:47:46;;;;;;;9.80;8.87;;;9.70;99.90;;;;;;4979884;28;20451;-74
2021/12/13 14:50:16;;;;;;;16.40;10.27;;;9.70;99.90;;;;;;4979732;28;20533;-74
2021/12/13 14:52:47;;;;;;;13.23;10.40;;;9.70;99.90;;;;;;4979792;28;20455;-74
2021/12/13 14:55:18;;;;;;;11.60;10.47;;;9.70;99.90;;;;;;4979780;28;20443;-74
2021/12/13 14:57:54;;;;;;;12.10;11.00;;;9.60;99.90;;;;;;4979680;28;20508;-74
2021/12/13 15:00:25;;;;;;;11.27;10.17;;;9.60;99.90;;;;;;4979575;28;20431;-74
2021/12/13 15:02:55;;;;;;;11.67;10.57;;;9.60;99.90;;;;;;4979843;28;20444;-74
2021/12/13 15:05:25;;;;;;;10.80;9.80;;;9.60;99.90;;;;;;4979283;28;20451;-73
2021/12/13 15:07:52;;;;;;;11.97;10.87;;;9.60;99.90;;;;;;4979228;28;20466;-73
2021/12/13 15:10:29;;;;;;;11.97;10.53;;;9.60;99.90;;;;;;4979115;28;20466;-74
2021/12/13 15:12:58;;;;;;;12.93;11.27;;;9.60;99.90;;;;;;4979195;28;20443;-73
2021/12/13 15:15:32;;;;;;;11.90;10.80;;;9.60;99.90;;;;;;4979309;28;20450;-73
2021/12/13 15:18:03;;;;;;;11.53;10.30;;;9.60;99.90;;;;;;4978624;28;20807;-73
2021/12/13 15:20:33;;;;;;;11.43;10.40;;;9.60;99.90;;;;;;4979513;28;20530;-73
2021/12/13 15:23:05;;;;;;;11.23;10.30;;;9.60;99.90;;;;;;4981783;28;20450;-73
2021/12/13 15:25:40;;;;;;;12.10;11.00;;;9.60;99.90;;;;;;4985444;28;20935;-73
2021/12/13 15:28:09;;;;;;;10.30;9.33;;;9.60;99.90;;;;;;4979417;28;20450;-73
2021/12/13 15:30:37;;;;;;;10.70;9.63;;;9.70;99.90;;;;;;4978641;28;20477;-73
2021/12/13 15:33:06;;;;;;;10.50;9.60;;;9.80;99.90;;;;;;4979234;28;20455;-73
2021/12/13 15:35:36;;;;;;;11.43;10.30;;;9.90;99.90;;;;;;4983971;28;20510;-73
2021/12/13 15:38:06;;;;;;;11.87;10.60;;;9.90;99.90;;;;;;4987246;28;20451;-72
2021/12/13 15:40:36;;;;;;;13.20;10.70;;;9.90;99.90;;;;;;4986973;28;20833;-73
2021/12/13 15:43:13;;;;;;;12.60;10.47;;;9.80;99.90;;;;;;4988470;28;20466;-73
2021/12/13 15:45:42;;;;;;;11.87;10.67;;;9.80;99.90;;;;;;4988621;28;20435;-73
2021/12/13 15:51:00;;;;;;;9.33;8.43;;;9.70;99.90;;;;;;4979244;28;20973;-73
2021/12/13 15:53:27;;;;;;;8.10;7.50;;;9.70;99.90;;;;;;4979508;28;20950;-73
2021/12/13 15:55:57;;;;;;;9.37;8.57;;;9.60;99.90;;;;;;4979669;28;20455;-76
2021/12/13 15:58:29;;;;;;;9.80;8.90;;;9.60;99.90;;;;;;4979710;28;20490;-75
2021/12/13 16:01:07;;;;;;;10.63;9.70;;;9.50;99.90;;;;;;4979369;28;20495;-75
2021/12/13 16:03:35;;;;;;;10.73;9.63;;;9.40;99.90;;;;;;4979808;28;20467;-74
2021/12/13 16:06:02;;;;;;;9.90;9.00;;;9.40;99.90;;;;;;4979844;28;20459;-75
2021/12/13 16:08:44;;;;;;;11.00;10.10;;;9.40;99.90;;;;;;4979838;28;20447;-75
2021/12/13 16:11:20;;;;;;;10.60;9.60;;;9.30;99.90;;;;;;4978098;28;20475;-75
2021/12/13 16:13:49;;;;;;;10.20;9.20;;;9.30;99.90;;;;;;4978391;28;20439;-75
2021/12/13 16:16:25;;;;;;;10.10;9.27;;;9.30;99.90;;;;;;4980441;28;20435;-75
2021/12/13 16:18:54;;;;;;;9.73;8.93;;;9.30;99.90;;;;;;4978416;28;20483;-75
2021/12/13 16:21:27;;;;;;;10.40;9.53;;;9.30;99.90;;;;;;4978852;28;20550;-75
2021/12/13 16:24:02;;;;;;;10.03;9.00;;;9.30;99.90;;;;;;4978477;28;20466;-74
2021/12/13 16:26:34;;;;;;;9.97;9.17;;;9.30;99.90;;;;;;4977777;28;20446;-73
2021/12/13 16:29:06;;;;;;;9.27;8.50;;;9.30;99.90;;;;;;4978740;28;20444;-73
2021/12/13 16:31:34;;;;;;;8.63;8.03;;;9.20;99.90;;;;;;4978873;28;20832;-73
2021/12/13 16:34:09;;;;;;;9.23;8.23;;;9.20;99.90;;;;;;4979465;28;20451;-73
2021/12/13 16:36:38;;;;;;;10.13;8.50;;;9.20;99.90;;;;;;4980671;28;20937;-72
2021/12/13 16:39:10;;;;;;;8.80;8.00;;;9.20;99.90;;;;;;4987986;28;20531;-72
2021/12/13 16:41:38;;;;;;;9.50;8.63;;;9.20;99.90;;;;;;4987145;28;20566;-71
2021/12/13 16:44:11;;;;;;;8.30;7.63;;;9.20;99.90;;;;;;4979082;28;20494;-72
2021/12/13 16:46:39;;;;;;;9.13;8.33;;;9.20;99.90;;;;;;4978147;28;20452;-71
2021/12/13 16:49:11;;;;;;;8.97;8.20;;;9.20;99.90;;;;;;4978002;28;20974;-72
2021/12/13 16:51:42;;;;;;;8.90;8.17;;;9.20;99.90;;;;;;4977844;28;20570;-72
2021/12/13 16:54:12;;;;;;;9.53;8.60;;;9.20;99.90;;;;;;4978331;28;20446;-72
2021/12/13 16:56:40;;;;;;;10.23;9.23;;;9.20;99.90;;;;;;4978468;28;20439;-72
2021/12/13 16:59:09;;;;;;;11.47;10.50;;;9.20;99.90;;;;;;4977423;28;20462;-73
2021/12/13 17:01:42;;;;;;;10.37;9.47;;;9.20;99.90;;;;;;4977850;28;20490;-73
2021/12/13 17:04:13;;;;;;;9.50;8.70;;;9.20;99.90;;;;;;4977855;28;20490;-72
2021/12/13 17:06:49;;;;;;;9.27;8.47;;;9.20;99.90;;;;;;4977966;28;20447;-75
2021/12/13 17:09:16;;;;;;;9.50;8.70;;;9.20;99.90;;;;;;4978108;28;20435;-73
2021/12/13 17:11:44;;;;;;;11.00;9.90;;;9.20;99.90;;;;;;4978454;28;20490;-73
2021/12/13 17:14:19;;;;;;;11.63;10.43;;;9.10;99.90;;;;;;4979285;28;20546;-73
2021/12/13 17:16:53;;;;;;;11.83;10.00;;;9.10;99.90;;;;;;4981552;28;20433;-73
2021/12/13 17:19:22;;;;;;;11.70;10.70;;;9.10;99.90;;;;;;4989351;28;20439;-73
2021/12/13 17:21:52;;;;;;;11.53;10.53;;;9.10;99.90;;;;;;4978668;28;20479;-73
2021/12/13 17:24:21;;;;;;;12.20;11.00;;;9.10;99.90;;;;;;4977224;28;20538;-73
2021/12/13 17:26:50;;;;;;;12.40;11.20;;;9.10;99.90;;;;;;4977966;28;20462;-73
2021/12/13 17:29:29;;;;;;;11.53;10.53;;;9.00;99.90;;;;;;4976991;28;20460;-73
2021/12/13 17:32:01;;;;;;;12.03;11.03;;;9.00;99.90;;;;;;4977453;28;20480;-73
2021/12/13 17:34:42;;;;;;;11.13;10.13;;;9.10;99.90;;;;;;4977304;28;20431;-69
2021/12/13 17:37:13;;;;;;;11.00;10.10;;;9.10;99.90;;;;;;4976412;28;20446;-72
2021/12/13 17:39:43;;;;;;;10.83;9.93;;;9.20;99.90;;;;;;4977139;28;20837;-72
2021/12/13 17:42:12;;;;;;;11.10;10.13;;;9.30;99.90;;;;;;4975743;28;20482;-72
2021/12/13 17:44:41;;;;;;;11.83;10.73;;;9.30;99.90;;;;;;4976426;28;20479;-72
2021/12/13 17:47:09;;;;;;;10.80;9.80;;;9.30;99.90;;;;;;4976048;28;20459;-72
2021/12/13 17:49:47;;;;;;;11.30;10.30;;;9.30;99.90;;;;;;4976519;28;20459;-73
2021/12/13 17:52:14;;;;;;;11.27;10.27;;;9.20;99.90;;;;;;4976044;28;20482;-73
2021/12/13 17:54:47;;;;;;;13.33;12.03;;;9.20;99.90;;;;;;4976390;28;20812;-74
2021/12/13 17:57:14;;;;;;;14.10;12.70;;;9.20;99.90;;;;;;4975728;28;20447;-73
2021/12/13 17:59:42;;;;;;;13.73;12.30;;;9.10;99.90;;;;;;4976707;28;20451;-73
2021/12/13 18:02:13;;;;;;;14.60;13.20;;;9.10;99.90;;;;;;4976046;28;20490;-73
2021/12/13 18:04:51;;;;;;;14.67;13.23;;;9.00;99.90;;;;;;4976761;28;20507;-73
2021/12/13 18:07:29;;;;;;;13.93;12.57;;;9.00;99.90;;;;;;4976745;28;20903;-74
2021/12/13 18:09:57;;;;;;;16.57;14.90;;;9.00;99.90;;;;;;4977789;28;20450;-74